KOKM

Okmulgee Regional Airport

Okmulgee, Oklahoma, USA
METAR KOKM 182135Z AUTO 17005KT 10SM CLR 32/21 A2995 RMK AO2 LTG DSNT SW T03190211
Observed Flight Rules
Aug-18 @ 21:35 UTC (18 minutes ago) Visual Flight Rules
Wind Visibility Clouds
170° at 5 knots 10 miles
  • Clear skies
Temperatures Readings
Current 32°C / 90°F
Dewpoint 21°C / 70°F
Humidity 52%
Altimeter 29.95" Hg
Pressure 1014 hPa
Elevation 220
METAR KOKM 182135Z AUTO 17005KT 10SM CLR 32/21 A2995 RMK AO2 LTG DSNT SW T03190211
Observed Flight Rules
Aug-18 @ 21:35 UTC
(18 minutes ago)
VFR
Wind Visibility
170° at 5 knots 10 miles
Clouds
  • Clear skies
Temperature Dewpoint
32°C / 90°F 21°C / 70°F
Humidity Altimeter Pressure
52% 29.95" Hg 1014 hPa